Time;durP1;ratioP1;P1;durP2;ratioP2;P2;SDS_P1;SDS_P2;PMS_P1;PMS_P2;Temp;Humidity;BMP_temperature;BMP_pressure;BME280_temperature;BME280_humidity;BME280_pressure;Samples;Min_cycle;Max_cycle;Signal;HPM_P1;HPM_P2
2022/06/18 00:00:45;;;;;;;7.30;4.33;;;14.50;99.90;;;;;;4861416;29;20181;-60
2022/06/18 00:03:12;;;;;;;8.60;4.27;;;14.50;99.90;;;;;;4861390;29;20608;-59
2022/06/18 00:05:40;;;;;;;7.50;4.10;;;14.50;99.90;;;;;;4861378;29;20264;-59
2022/06/18 00:08:39;;;;;;;6.20;4.10;;;14.40;99.90;;;;;;4861342;29;20229;-61
2022/06/18 00:13:50;;;;;;;6.60;4.17;;;14.30;99.90;;;;;;4860838;29;20200;-59
2022/06/18 00:16:20;;;;;;;6.90;4.63;;;14.30;99.90;;;;;;4861122;29;20190;-61
2022/06/18 00:18:47;;;;;;;7.60;4.97;;;14.20;99.90;;;;;;4861277;29;20219;-59
2022/06/18 00:21:17;;;;;;;9.70;5.03;;;14.20;99.90;;;;;;4861077;29;20186;-59
2022/06/18 00:23:43;;;;;;;7.90;4.67;;;14.20;99.90;;;;;;4861313;29;20610;-59
2022/06/18 00:26:10;;;;;;;7.10;4.53;;;14.10;99.90;;;;;;4861363;29;20188;-59
2022/06/18 00:28:36;;;;;;;9.47;4.83;;;14.10;99.90;;;;;;4860637;29;20212;-59
2022/06/18 00:31:02;;;;;;;7.03;4.97;;;14.10;99.90;;;;;;4861192;29;20178;-59
2022/06/18 00:33:28;;;;;;;6.40;4.50;;;14.10;99.90;;;;;;4860537;29;20216;-59
2022/06/18 00:35:58;;;;;;;7.83;4.73;;;14.00;99.90;;;;;;4860275;29;20276;-59
2022/06/18 00:38:30;;;;;;;7.73;4.80;;;14.00;99.90;;;;;;4860482;29;20702;-59
2022/06/18 00:40:57;;;;;;;7.93;4.60;;;14.00;99.90;;;;;;4861038;29;20189;-59
2022/06/18 00:43:31;;;;;;;7.27;4.47;;;14.00;99.90;;;;;;4860724;29;20185;-59
2022/06/18 00:46:12;;;;;;;6.73;4.47;;;14.00;99.90;;;;;;4860625;29;20251;-59
2022/06/18 00:48:45;;;;;;;5.97;3.90;;;13.90;99.90;;;;;;4860269;29;20216;-59
2022/06/18 00:51:20;;;;;;;9.97;4.20;;;14.00;99.90;;;;;;4860747;29;20645;-58
2022/06/18 00:53:50;;;;;;;6.87;4.40;;;14.00;99.90;;;;;;4860651;29;20188;-58
2022/06/18 00:56:24;;;;;;;8.07;4.20;;;14.00;99.90;;;;;;4860605;29;20260;-59
2022/06/18 00:59:00;;;;;;;6.17;3.97;;;14.00;99.90;;;;;;4860538;29;20276;-58
2022/06/18 01:01:37;;;;;;;6.93;4.23;;;14.10;99.90;;;;;;4860328;29;20184;-58
2022/06/18 01:04:26;;;;;;;8.20;4.50;;;14.00;99.90;;;;;;4860331;29;20191;-58
2022/06/18 01:07:14;;;;;;;8.37;4.33;;;14.00;99.90;;;;;;4860385;29;20188;-60
2022/06/18 01:09:41;;;;;;;6.73;4.20;;;14.00;99.90;;;;;;4858087;29;20205;-58
2022/06/18 01:12:09;;;;;;;8.53;4.33;;;14.00;99.90;;;;;;4846354;29;20193;-58
2022/06/18 01:14:36;;;;;;;5.30;4.27;;;14.00;99.90;;;;;;4860153;29;20185;-58
2022/06/18 01:17:04;;;;;;;9.60;4.83;;;14.00;99.90;;;;;;4859951;29;20265;-58
2022/06/18 01:19:40;;;;;;;6.50;4.10;;;13.90;99.90;;;;;;4859929;29;20269;-59
2022/06/18 01:22:26;;;;;;;5.87;4.00;;;13.90;99.90;;;;;;4859970;29;20181;-59
2022/06/18 01:24:52;;;;;;;6.30;4.73;;;13.90;99.90;;;;;;4860208;29;20181;-60
2022/06/18 01:27:18;;;;;;;7.00;4.57;;;13.80;99.90;;;;;;4859922;29;20535;-58
2022/06/18 01:29:44;;;;;;;8.37;4.57;;;13.90;99.90;;;;;;4859654;29;20240;-59
2022/06/18 01:32:15;;;;;;;6.60;4.20;;;13.90;99.90;;;;;;4860086;29;20192;-59
2022/06/18 01:34:41;;;;;;;8.33;4.33;;;14.00;99.90;;;;;;4859542;29;20189;-59
2022/06/18 01:37:08;;;;;;;5.13;3.70;;;14.10;99.90;;;;;;4843323;29;20197;-58
2022/06/18 01:39:37;;;;;;;4.50;3.80;;;14.10;99.90;;;;;;4859543;29;20182;-58
2022/06/18 01:42:14;;;;;;;6.30;3.37;;;14.20;99.90;;;;;;4859758;29;20239;-58
2022/06/18 01:44:48;;;;;;;8.30;3.77;;;14.30;99.90;;;;;;4859577;29;20192;-62
2022/06/18 01:47:22;;;;;;;7.13;3.70;;;14.30;99.90;;;;;;4858584;29;20185;-58
2022/06/18 01:49:59;;;;;;;4.60;3.53;;;14.30;99.90;;;;;;4843367;29;20196;-58
2022/06/18 01:52:41;;;;;;;7.73;4.00;;;14.30;99.90;;;;;;4859381;29;20181;-59
2022/06/18 01:55:13;;;;;;;8.43;3.47;;;14.20;99.90;;;;;;4859722;29;20185;-59
2022/06/18 01:57:45;;;;;;;6.03;3.43;;;14.20;99.90;;;;;;4859732;29;20212;-58
2022/06/18 02:00:15;;;;;;;9.23;4.23;;;14.00;99.90;;;;;;4859675;29;20186;-60
2022/06/18 02:02:44;;;;;;;6.40;4.50;;;14.00;99.90;;;;;;4859316;29;20192;-59
2022/06/18 02:05:11;;;;;;;6.00;3.73;;;13.80;99.90;;;;;;4859548;29;20193;-59
2022/06/18 02:07:37;;;;;;;9.23;4.57;;;13.80;99.90;;;;;;4858809;29;20228;-59
2022/06/18 02:10:10;;;;;;;7.03;3.80;;;13.70;99.90;;;;;;4854519;29;20193;-59
2022/06/18 02:12:39;;;;;;;8.80;4.00;;;13.60;99.90;;;;;;4849141;29;20225;-59
2022/06/18 02:15:14;;;;;;;8.53;4.57;;;13.60;99.90;;;;;;4859424;29;20184;-60
2022/06/18 02:17:41;;;;;;;10.47;4.37;;;13.50;99.90;;;;;;4859143;29;20283;-60
2022/06/18 02:20:21;;;;;;;6.73;4.33;;;13.50;99.90;;;;;;4859482;29;20236;-59
2022/06/18 02:22:51;;;;;;;6.33;3.90;;;13.50;99.90;;;;;;4859268;29;20192;-59
2022/06/18 02:25:20;;;;;;;10.00;4.33;;;13.40;99.90;;;;;;4859561;29;20181;-60
2022/06/18 02:27:47;;;;;;;11.97;4.10;;;13.40;99.90;;;;;;4859163;29;20244;-60
2022/06/18 02:30:23;;;;;;;10.00;4.10;;;13.50;99.90;;;;;;4858969;29;20710;-59
2022/06/18 02:33:20;;;;;;;7.63;3.97;;;13.50;99.90;;;;;;4858946;29;20243;-59
2022/06/18 02:35:46;;;;;;;7.23;4.07;;;13.50;99.90;;;;;;4859339;29;20185;-58
2022/06/18 02:38:22;;;;;;;12.80;4.13;;;13.50;99.90;;;;;;4859131;29;20197;-58
2022/06/18 02:40:48;;;;;;;9.40;4.40;;;13.50;99.90;;;;;;4859219;29;20180;-59
2022/06/18 02:43:17;;;;;;;4.83;3.23;;;13.50;99.90;;;;;;4842349;29;20487;-59
2022/06/18 02:45:45;;;;;;;9.40;3.50;;;13.60;99.90;;;;;;4859136;29;20185;-59
2022/06/18 02:48:11;;;;;;;8.10;3.77;;;13.60;99.90;;;;;;4858970;29;20221;-59
2022/06/18 02:50:41;;;;;;;5.80;3.50;;;13.70;99.90;;;;;;4859060;29;20705;-59
2022/06/18 02:53:11;;;;;;;4.27;3.20;;;13.70;99.90;;;;;;4858893;29;20319;-58
2022/06/18 02:55:49;;;;;;;6.40;2.63;;;13.80;99.90;;;;;;4859158;29;20196;-60
2022/06/18 02:58:22;;;;;;;5.60;3.33;;;13.80;99.90;;;;;;4860788;29;20216;-58
2022/06/18 03:01:00;;;;;;;6.10;3.17;;;13.80;99.90;;;;;;4862109;29;20248;-59
2022/06/18 03:03:33;;;;;;;5.37;3.37;;;13.90;99.90;;;;;;4862203;29;20177;-69
2022/06/18 03:05:59;;;;;;;6.63;2.80;;;13.90;99.90;;;;;;4861993;29;20193;-59
2022/06/18 03:08:27;;;;;;;9.43;3.67;;;13.90;99.90;;;;;;4862168;29;20311;-60
2022/06/18 03:13:37;;;;;;;10.17;3.70;;;13.80;99.90;;;;;;4859758;29;20236;-59
2022/06/18 03:16:05;;;;;;;9.63;3.67;;;13.80;99.90;;;;;;4862136;29;20618;-60
2022/06/18 03:18:32;;;;;;;6.93;3.47;;;13.80;99.90;;;;;;4861776;29;20189;-59
2022/06/18 03:21:04;;;;;;;7.63;3.30;;;13.80;99.90;;;;;;4862051;29;20280;-61
2022/06/18 03:23:30;;;;;;;6.80;3.10;;;13.90;99.90;;;;;;4861270;29;20201;-59
2022/06/18 03:25:56;;;;;;;4.77;3.30;;;13.90;99.90;;;;;;4861629;29;20226;-61
2022/06/18 03:28:23;;;;;;;6.80;3.33;;;14.00;99.90;;;;;;4861678;29;20221;-59
2022/06/18 03:30:49;;;;;;;8.30;3.60;;;14.10;99.90;;;;;;4861427;29;20239;-60
2022/06/18 03:33:15;;;;;;;4.97;3.70;;;14.30;99.90;;;;;;4861762;29;20233;-60
2022/06/18 03:35:44;;;;;;;10.50;3.73;;;14.30;99.90;;;;;;4861530;29;20717;-59
2022/06/18 03:38:11;;;;;;;7.47;3.40;;;14.40;99.90;;;;;;4861671;29;20193;-59
2022/06/18 03:40:37;;;;;;;4.33;3.10;;;14.50;99.90;;;;;;4861295;29;20269;-59
2022/06/18 03:43:03;;;;;;;10.33;5.00;;;14.60;99.90;;;;;;4861662;29;20280;-59
2022/06/18 03:45:43;;;;;;;5.30;3.40;;;14.70;99.90;;;;;;4859754;29;20237;-62
2022/06/18 03:48:18;;;;;;;7.73;3.00;;;14.80;99.90;;;;;;4861551;29;20253;-61
2022/06/18 03:50:43;;;;;;;6.63;3.10;;;14.90;99.90;;;;;;4861233;29;20187;-59
2022/06/18 03:53:09;;;;;;;6.60;3.17;;;15.00;99.90;;;;;;4861149;29;20276;-60
2022/06/18 03:55:36;;;;;;;9.23;3.40;;;15.10;99.90;;;;;;4861035;29;20188;-60
2022/06/18 03:58:04;;;;;;;5.73;2.83;;;15.20;99.90;;;;;;4861212;29;20272;-60
2022/06/18 04:00:29;;;;;;;4.70;2.80;;;15.30;99.90;;;;;;4861309;29;20201;-69
2022/06/18 04:02:55;;;;;;;4.67;2.80;;;15.30;99.90;;;;;;4861461;29;20531;-60
2022/06/18 04:05:21;;;;;;;8.00;3.60;;;15.40;99.90;;;;;;4860809;29;20189;-60
2022/06/18 04:07:46;;;;;;;9.27;2.93;;;15.50;99.90;;;;;;4859586;29;20212;-60
2022/06/18 04:10:21;;;;;;;5.43;2.83;;;15.80;99.90;;;;;;4853840;29;20190;-59
2022/06/18 04:12:47;;;;;;;3.87;2.67;;;15.90;99.90;;;;;;4842646;29;20203;-60
2022/06/18 04:15:15;;;;;;;13.50;3.30;;;16.00;99.90;;;;;;4842728;29;20488;-58
2022/06/18 04:17:42;;;;;;;9.97;3.00;;;16.10;99.90;;;;;;4842680;29;20292;-60
2022/06/18 04:20:19;;;;;;;8.40;2.90;;;15.90;99.90;;;;;;4842821;29;20217;-60
2022/06/18 04:22:44;;;;;;;5.50;3.00;;;16.00;99.90;;;;;;4842527;29;20595;-59
2022/06/18 04:25:10;;;;;;;6.67;2.63;;;16.20;99.90;;;;;;4842299;29;20306;-63
2022/06/18 04:27:37;;;;;;;5.13;2.80;;;16.20;99.90;;;;;;4841993;29;20232;-61
2022/06/18 04:30:03;;;;;;;6.63;3.00;;;16.10;99.90;;;;;;4854562;29;20276;-60
2022/06/18 04:32:29;;;;;;;10.03;3.00;;;16.00;99.90;;;;;;4844350;29;20592;-59
2022/06/18 04:34:55;;;;;;;6.63;3.33;;;16.00;99.90;;;;;;4860382;29;20217;-61
2022/06/18 04:37:20;;;;;;;9.23;3.57;;;15.90;99.90;;;;;;4860944;29;20228;-59
2022/06/18 04:39:46;;;;;;;7.87;3.13;;;15.80;99.90;;;;;;4860219;29;20186;-62
2022/06/18 04:42:12;;;;;;;4.70;3.00;;;15.80;99.90;;;;;;4860723;29;20194;-59
2022/06/18 04:44:37;;;;;;;8.00;2.77;;;15.70;99.90;;;;;;4860310;29;20267;-61
2022/06/18 04:47:03;;;;;;;6.93;2.70;;;15.70;99.90;;;;;;4844011;29;20607;-59
2022/06/18 04:49:29;;;;;;;6.30;2.77;;;15.70;99.90;;;;;;4860568;29;20308;-60
2022/06/18 04:51:55;;;;;;;11.37;4.00;;;15.70;99.90;;;;;;4860255;29;20218;-59
2022/06/18 04:54:20;;;;;;;8.00;3.37;;;15.70;99.90;;;;;;4859798;29;20715;-60
2022/06/18 04:56:46;;;;;;;4.90;2.80;;;15.70;99.90;;;;;;4860207;29;20214;-59
2022/06/18 04:59:13;;;;;;;14.73;3.60;;;15.80;99.90;;;;;;4860561;29;20219;-60
2022/06/18 05:01:38;;;;;;;9.37;3.70;;;15.80;99.90;;;;;;4859924;29;20192;-59
2022/06/18 05:04:04;;;;;;;7.27;3.67;;;15.90;99.90;;;;;;4859946;29;20189;-60
2022/06/18 05:06:30;;;;;;;7.13;3.87;;;16.00;99.90;;;;;;4859746;29;20219;-60
2022/06/18 05:08:56;;;;;;;11.27;3.53;;;16.00;99.90;;;;;;4859667;29;20260;-59
2022/06/18 05:11:21;;;;;;;8.73;3.70;;;16.10;99.90;;;;;;4860042;29;20575;-59
2022/06/18 05:13:47;;;;;;;9.87;4.03;;;16.30;99.90;;;;;;4877119;29;20192;-60
2022/06/18 05:16:14;;;;;;;7.87;3.87;;;16.40;99.90;;;;;;4878218;29;20191;-60
2022/06/18 05:18:44;;;;;;;8.80;3.67;;;16.30;99.90;;;;;;4878647;29;20201;-63
2022/06/18 05:21:10;;;;;;;8.17;3.63;;;16.30;99.90;;;;;;4861688;29;20347;-59
2022/06/18 05:23:36;;;;;;;5.87;4.07;;;16.20;99.90;;;;;;4877748;29;20593;-60
2022/06/18 05:26:02;;;;;;;5.33;3.60;;;16.20;99.90;;;;;;4861561;29;20260;-60
2022/06/18 05:28:28;;;;;;;8.20;3.73;;;16.10;99.90;;;;;;4877013;29;20238;-60
2022/06/18 05:30:55;;;;;;;6.27;3.47;;;16.10;99.90;;;;;;4859511;29;20572;-60
2022/06/18 05:33:20;;;;;;;6.87;3.63;;;16.10;99.90;;;;;;4859623;29;20185;-61
2022/06/18 05:35:46;;;;;;;8.83;3.70;;;16.00;99.90;;;;;;4859190;29;20199;-60
2022/06/18 05:38:18;;;;;;;10.73;4.03;;;16.10;99.90;;;;;;4859279;29;20319;-60
2022/06/18 05:40:45;;;;;;;7.70;3.57;;;16.30;99.90;;;;;;4859256;29;20185;-60
2022/06/18 05:43:11;;;;;;;6.97;3.43;;;16.30;99.90;;;;;;4859571;29;20192;-60
2022/06/18 05:45:38;;;;;;;8.87;3.77;;;16.50;99.90;;;;;;4858721;29;20541;-61
2022/06/18 05:48:04;;;;;;;6.23;3.53;;;16.70;99.90;;;;;;4859409;29;20220;-60
2022/06/18 05:50:30;;;;;;;6.80;3.60;;;16.80;99.90;;;;;;4859148;29;20193;-60
2022/06/18 05:52:56;;;;;;;12.30;3.30;;;17.00;99.90;;;;;;4858964;29;20568;-60
2022/06/18 05:55:22;;;;;;;14.37;3.90;;;17.10;99.90;;;;;;4858650;29;20187;-59
2022/06/18 05:57:52;;;;;;;8.17;3.07;;;17.30;99.90;;;;;;4858912;29;20543;-61
2022/06/18 06:00:21;;;;;;;7.77;2.80;;;17.40;99.90;;;;;;4859446;29;20630;-61
2022/06/18 06:02:47;;;;;;;3.33;2.60;;;17.50;99.90;;;;;;4859002;29;20235;-60
2022/06/18 06:05:13;;;;;;;9.77;3.00;;;17.50;99.90;;;;;;4858650;29;20606;-61
2022/06/18 06:07:39;;;;;;;7.47;2.80;;;17.60;99.90;;;;;;4858695;29;20231;-61
2022/06/18 06:13:10;;;;;;;10.13;3.00;;;17.70;99.90;;;;;;4853336;29;20240;-61
2022/06/18 06:15:37;;;;;;;11.63;2.97;;;17.70;99.90;;;;;;4842022;29;20233;-61
2022/06/18 06:18:04;;;;;;;7.83;2.50;;;17.60;99.90;;;;;;4859276;29;20298;-60
2022/06/18 06:20:33;;;;;;;5.67;2.37;;;17.70;99.90;;;;;;4858541;29;20560;-62
2022/06/18 06:22:59;;;;;;;4.50;2.50;;;17.80;99.90;;;;;;4858768;29;20177;-65
2022/06/18 06:25:25;;;;;;;7.13;2.93;;;17.90;99.90;;;;;;4858681;29;20642;-60
2022/06/18 06:27:51;;;;;;;10.37;2.67;;;18.00;99.90;;;;;;4858496;29;20275;-60
2022/06/18 06:30:17;;;;;;;4.63;2.43;;;18.10;99.90;;;;;;4859094;29;20680;-60
2022/06/18 06:32:44;;;;;;;7.70;2.50;;;18.20;99.90;;;;;;4859595;29;20188;-62
2022/06/18 06:35:10;;;;;;;8.20;3.03;;;18.30;99.90;;;;;;4861286;29;20380;-60
2022/06/18 06:37:36;;;;;;;9.40;2.13;;;18.20;99.90;;;;;;4844757;29;20232;-59
2022/06/18 06:40:02;;;;;;;5.23;1.97;;;18.30;99.90;;;;;;4861820;29;20269;-69
2022/06/18 06:42:28;;;;;;;4.83;1.80;;;18.20;99.90;;;;;;4861853;29;20189;-69
2022/06/18 06:44:54;;;;;;;8.93;2.37;;;18.10;99.90;;;;;;4861811;29;20181;-72
2022/06/18 06:47:20;;;;;;;7.37;2.70;;;18.30;99.90;;;;;;4862087;29;20193;-60
2022/06/18 06:49:46;;;;;;;4.07;2.20;;;18.40;99.90;;;;;;4861947;29;20275;-66
2022/06/18 06:52:13;;;;;;;2.83;1.90;;;18.50;99.90;;;;;;4861566;29;20296;-63
2022/06/18 06:54:39;;;;;;;6.23;2.20;;;18.60;99.90;;;;;;4844379;29;20261;-62
2022/06/18 06:57:23;;;;;;;3.73;2.03;;;18.60;99.90;;;;;;4861775;29;20185;-59
2022/06/18 06:59:49;;;;;;;5.00;2.63;;;18.60;99.90;;;;;;4861983;29;20185;-59
2022/06/18 07:02:20;;;;;;;7.87;2.20;;;18.60;99.90;;;;;;4862010;29;20219;-60
2022/06/18 07:04:46;;;;;;;5.97;2.77;;;18.80;99.90;;;;;;4861501;29;20187;-60
2022/06/18 07:07:13;;;;;;;7.60;2.20;;;18.90;99.90;;;;;;4844973;29;20269;-62
2022/06/18 07:09:39;;;;;;;5.85;1.83;;;18.90;99.90;;;;;;4859046;29;20688;-60
2022/06/18 07:12:06;;;;;;;10.60;2.05;;;19.00;99.90;;;;;;4846983;29;20195;-61
2022/06/18 07:14:32;;;;;;;5.00;2.37;;;18.90;99.90;;;;;;4861905;29;20280;-61
2022/06/18 07:16:58;;;;;;;6.20;3.20;;;19.00;99.90;;;;;;4861175;29;20655;-61
2022/06/18 07:19:25;;;;;;;4.45;1.83;;;19.00;99.90;;;;;;4844952;29;20193;-60
2022/06/18 07:21:51;;;;;;;4.05;2.08;;;19.10;99.90;;;;;;4860985;29;20197;-61
2022/06/18 07:24:18;;;;;;;4.25;1.98;;;19.10;99.90;;;;;;4861590;29;20195;-63
2022/06/18 07:26:44;;;;;;;3.83;1.60;;;19.20;99.90;;;;;;4861100;29;20284;-63
2022/06/18 07:29:09;;;;;;;3.38;1.83;;;19.10;99.90;;;;;;4860811;29;20366;-66
2022/06/18 07:31:35;;;;;;;3.53;1.80;;;19.20;99.90;;;;;;4854387;29;20221;-68
2022/06/18 07:34:05;;;;;;;3.92;1.92;;;19.30;99.90;;;;;;4841952;29;20669;-64
2022/06/18 07:36:32;;;;;;;3.35;1.63;;;19.40;99.90;;;;;;4840353;29;20245;-67
2022/06/18 07:38:59;;;;;;;5.20;1.90;;;19.50;99.90;;;;;;4842080;29;20294;-67
2022/06/18 07:41:34;;;;;;;6.70;2.22;;;19.50;98.90;;;;;;4842491;29;20186;-66
2022/06/18 07:44:01;;;;;;;4.28;1.45;;;19.40;99.20;;;;;;4841787;29;20189;-69
2022/06/18 07:46:26;;;;;;;3.28;1.35;;;19.40;99.00;;;;;;4842105;29;20200;-60
2022/06/18 07:48:52;;;;;;;2.60;1.45;;;19.30;98.10;;;;;;4835769;29;20647;-66
2022/06/18 07:51:18;;;;;;;2.38;1.42;;;19.40;98.10;;;;;;4842023;29;20189;-67
2022/06/18 07:53:44;;;;;;;4.75;1.70;;;19.60;97.10;;;;;;4825605;29;20246;-63
2022/06/18 07:56:14;;;;;;;7.90;1.48;;;19.70;95.90;;;;;;4841880;29;20588;-69
2022/06/18 07:58:40;;;;;;;4.28;1.33;;;19.90;95.20;;;;;;4841391;29;20217;-62
2022/06/18 08:01:06;;;;;;;2.88;0.90;;;20.10;94.90;;;;;;4841050;29;20256;-70
2022/06/18 08:03:33;;;;;;;3.22;1.30;;;20.10;92.70;;;;;;4841838;29;20720;-64
2022/06/18 08:06:01;;;;;;;9.30;1.40;;;20.00;93.40;;;;;;4842068;29;20675;-65
2022/06/18 08:08:27;;;;;;;2.85;1.30;;;20.00;93.50;;;;;;4842274;29;20702;-63
2022/06/18 08:10:54;;;;;;;3.33;2.15;;;20.00;93.30;;;;;;4841815;29;20221;-65
2022/06/18 08:13:20;;;;;;;5.97;2.25;;;20.00;93.60;;;;;;4855968;29;20189;-65
2022/06/18 08:15:46;;;;;;;3.53;1.50;;;20.20;93.80;;;;;;4860704;29;20186;-64
2022/06/18 08:18:13;;;;;;;2.78;1.40;;;20.30;93.20;;;;;;4847149;29;20194;-62
2022/06/18 08:20:39;;;;;;;7.00;1.33;;;20.40;93.80;;;;;;4841890;29;20190;-64
2022/06/18 08:23:06;;;;;;;1.98;1.08;;;20.60;93.50;;;;;;4841511;29;20185;-64
2022/06/18 08:25:35;;;;;;;2.20;1.55;;;20.50;93.20;;;;;;4842135;29;20174;-69
2022/06/18 08:28:04;;;;;;;1.77;1.27;;;20.60;93.50;;;;;;4824644;29;20233;-75
2022/06/18 08:30:30;;;;;;;6.50;2.00;;;20.60;93.20;;;;;;4841235;29;20282;-65
2022/06/18 08:32:56;;;;;;;6.93;2.65;;;20.60;93.60;;;;;;4840984;29;20213;-73
2022/06/18 08:35:21;;;;;;;4.50;1.70;;;20.70;93.30;;;;;;4825002;29;20198;-68
2022/06/18 08:37:47;;;;;;;5.18;1.88;;;20.70;92.60;;;;;;4841505;29;20686;-66
2022/06/18 08:40:52;;;;;;;3.08;1.45;;;20.90;92.70;;;;;;4841435;29;20182;-66
2022/06/18 08:43:55;;;;;;;3.10;1.75;;;20.80;92.30;;;;;;4820387;29;20279;-62
2022/06/18 08:46:42;;;;;;;3.55;1.58;;;20.90;92.30;;;;;;4840895;29;20284;-62
2022/06/18 08:49:54;;;;;;;5.22;1.75;;;21.20;92.10;;;;;;4807807;29;20217;-60
2022/06/18 08:52:53;;;;;;;7.45;2.05;;;21.60;91.50;;;;;;4783098;29;20194;-62
2022/06/18 08:55:28;;;;;;;5.30;1.98;;;21.90;90.50;;;;;;4834508;29;20186;-58
2022/06/18 08:58:11;;;;;;;3.33;1.83;;;21.90;91.10;;;;;;4840259;29;20718;-61
2022/06/18 09:00:36;;;;;;;6.75;2.45;;;21.80;91.10;;;;;;4822524;29;20195;-60
2022/06/18 09:03:12;;;;;;;2.75;1.77;;;22.00;90.50;;;;;;4839137;29;20254;-59
2022/06/18 09:05:56;;;;;;;2.53;1.48;;;22.20;87.60;;;;;;4839395;29;20185;-59
2022/06/18 09:09:09;;;;;;;9.32;2.15;;;22.10;89.20;;;;;;4839311;29;20301;-62
2022/06/18 09:12:09;;;;;;;4.15;2.17;;;22.00;90.60;;;;;;4831111;29;20206;-60
2022/06/18 09:14:59;;;;;;;3.25;1.70;;;21.60;90.20;;;;;;4858391;29;20208;-59
2022/06/18 09:17:46;;;;;;;6.00;1.88;;;21.40;90.30;;;;;;4851841;29;20197;-60
2022/06/18 09:20:22;;;;;;;5.57;2.20;;;21.60;90.40;;;;;;4840459;29;20221;-60
2022/06/18 09:22:52;;;;;;;4.57;2.20;;;21.80;89.30;;;;;;4824271;29;20545;-59
2022/06/18 09:25:20;;;;;;;3.95;1.70;;;22.00;89.80;;;;;;4840953;29;20189;-59
2022/06/18 09:28:03;;;;;;;2.78;1.77;;;22.20;88.10;;;;;;4840835;29;20214;-60
2022/06/18 09:30:32;;;;;;;2.55;1.70;;;22.40;87.90;;;;;;4840469;29;20241;-59
2022/06/18 09:33:24;;;;;;;2.67;1.60;;;22.50;87.70;;;;;;4840198;29;20228;-59
2022/06/18 09:36:01;;;;;;;5.70;1.65;;;22.50;88.50;;;;;;4840100;29;20269;-65
2022/06/18 09:38:28;;;;;;;6.30;1.88;;;22.10;89.00;;;;;;4840674;29;20204;-60
2022/06/18 09:40:57;;;;;;;6.25;1.83;;;22.30;88.90;;;;;;4839948;29;20242;-59
2022/06/18 09:43:38;;;;;;;5.13;2.38;;;22.50;84.90;;;;;;4840078;29;20192;-60
2022/06/18 09:46:30;;;;;;;4.90;2.42;;;22.60;84.50;;;;;;4839826;29;20611;-61
2022/06/18 09:48:56;;;;;;;3.00;1.88;;;22.80;84.60;;;;;;4839660;29;20273;-60
2022/06/18 09:51:42;;;;;;;2.35;1.95;;;22.70;84.90;;;;;;4840702;29;20197;-59
2022/06/18 09:54:10;;;;;;;3.75;1.60;;;22.70;85.40;;;;;;4839844;29;20193;-60
2022/06/18 09:56:43;;;;;;;4.72;2.22;;;22.90;85.10;;;;;;4840384;29;20186;-59
2022/06/18 09:59:21;;;;;;;3.97;1.60;;;23.30;82.80;;;;;;4840189;29;20299;-59
2022/06/18 10:01:53;;;;;;;2.85;1.70;;;23.30;80.20;;;;;;4839850;29;20233;-60
2022/06/18 10:07:27;;;;;;;6.25;1.75;;;23.20;81.90;;;;;;4839799;29;20197;-60
2022/06/18 10:09:58;;;;;;;3.42;1.88;;;23.20;82.20;;;;;;4839608;29;20194;-59
2022/06/18 10:12:25;;;;;;;6.40;2.15;;;23.10;80.70;;;;;;4847095;29;20188;-60
2022/06/18 10:14:56;;;;;;;3.38;2.05;;;23.00;81.00;;;;;;4858601;29;20185;-59
2022/06/18 10:17:32;;;;;;;2.95;1.80;;;23.20;81.20;;;;;;4851956;29;20181;-60
2022/06/18 10:20:33;;;;;;;5.10;1.90;;;23.40;80.20;;;;;;4839977;29;20189;-59
2022/06/18 10:23:13;;;;;;;5.97;1.95;;;23.40;79.60;;;;;;4823369;29;20189;-60
2022/06/18 10:25:57;;;;;;;3.67;2.10;;;23.20;81.10;;;;;;4840175;29;20221;-63
2022/06/18 10:28:45;;;;;;;3.38;1.88;;;23.10;82.00;;;;;;4840079;29;20213;-61
2022/06/18 10:31:23;;;;;;;4.68;1.80;;;22.80;83.10;;;;;;4823318;29;20269;-60
2022/06/18 10:34:10;;;;;;;3.80;1.67;;;23.00;83.30;;;;;;4840268;29;20189;-62
2022/06/18 10:36:52;;;;;;;7.53;2.05;;;22.90;82.20;;;;;;4839534;29;20626;-60
2022/06/18 10:39:42;;;;;;;4.55;2.00;;;22.80;82.90;;;;;;4840191;29;20198;-60
2022/06/18 10:42:44;;;;;;;6.93;1.92;;;22.80;82.80;;;;;;4839154;29;20241;-58
2022/06/18 10:45:24;;;;;;;5.05;1.75;;;23.00;81.70;;;;;;4801891;29;20270;-61
2022/06/18 10:47:53;;;;;;;5.05;1.90;;;22.90;81.50;;;;;;4823075;29;20221;-60
2022/06/18 10:50:21;;;;;;;2.83;1.20;;;23.00;81.20;;;;;;4839758;29;20190;-59
2022/06/18 10:53:06;;;;;;;5.90;1.67;;;22.90;75.60;;;;;;4839804;29;20186;-61
2022/06/18 10:55:33;;;;;;;2.78;1.90;;;22.70;75.20;;;;;;4840143;29;20612;-59
2022/06/18 10:58:14;;;;;;;3.97;1.83;;;22.70;76.60;;;;;;4839748;29;20540;-58
2022/06/18 11:01:01;;;;;;;3.97;1.80;;;23.00;77.20;;;;;;4839607;29;20182;-61
2022/06/18 11:03:30;;;;;;;4.85;1.75;;;23.70;77.30;;;;;;4839320;29;20240;-58
2022/06/18 11:06:01;;;;;;;2.65;1.50;;;23.80;76.90;;;;;;4840095;29;20269;-59
2022/06/18 11:08:32;;;;;;;6.63;2.00;;;23.50;76.70;;;;;;4839389;29;20225;-60
2022/06/18 11:11:03;;;;;;;3.85;1.80;;;23.60;77.00;;;;;;4839535;29;20522;-59
2022/06/18 11:13:39;;;;;;;4.97;2.08;;;24.00;76.10;;;;;;4838049;29;20185;-63
2022/06/18 11:16:15;;;;;;;3.75;1.70;;;24.70;75.30;;;;;;4857718;29;20549;-59
2022/06/18 11:18:44;;;;;;;3.65;1.63;;;25.20;72.60;;;;;;4842645;29;20208;-60
2022/06/18 11:21:23;;;;;;;4.15;1.65;;;25.10;69.90;;;;;;4843008;29;20632;-60
2022/06/18 11:24:00;;;;;;;4.22;1.70;;;25.40;67.60;;;;;;4843064;29;20184;-61
2022/06/18 11:26:28;;;;;;;4.78;2.55;;;26.50;65.00;;;;;;4843655;29;20213;-61
2022/06/18 11:29:01;;;;;;;3.63;1.50;;;27.50;61.00;;;;;;4842773;29;20682;-60
2022/06/18 11:31:35;;;;;;;3.22;1.50;;;29.60;58.10;;;;;;4842994;29;20190;-60
2022/06/18 11:34:27;;;;;;;1.65;1.35;;;29.00;56.00;;;;;;4842845;29;20686;-59
2022/06/18 11:36:56;;;;;;;4.53;1.42;;;27.40;57.20;;;;;;4843071;29;20647;-59
2022/06/18 11:39:31;;;;;;;2.00;1.15;;;26.50;57.90;;;;;;4826552;29;20206;-61
2022/06/18 11:42:03;;;;;;;2.42;1.30;;;27.70;56.70;;;;;;4843037;29;20185;-60
2022/06/18 11:44:40;;;;;;;8.00;1.80;;;29.40;54.20;;;;;;4842842;29;20237;-59
2022/06/18 11:47:27;;;;;;;4.35;1.40;;;30.80;50.70;;;;;;4841930;29;20192;-60
2022/06/18 11:50:06;;;;;;;5.05;1.50;;;30.30;50.80;;;;;;4824195;29;20663;-62
2022/06/18 11:52:42;;;;;;;3.50;1.75;;;30.40;50.50;;;;;;4824415;29;20190;-60
2022/06/18 11:55:30;;;;;;;3.47;1.38;;;30.40;51.10;;;;;;4823993;29;20251;-60
2022/06/18 11:58:10;;;;;;;3.03;1.13;;;30.30;48.70;;;;;;4824433;29;20660;-63
2022/06/18 12:00:46;;;;;;;2.00;0.90;;;30.70;47.00;;;;;;4824104;29;20543;-59
2022/06/18 12:03:25;;;;;;;2.58;1.30;;;29.40;49.20;;;;;;4823732;29;20285;-59
2022/06/18 12:06:02;;;;;;;2.85;1.60;;;29.40;51.20;;;;;;4824125;29;20187;-59
2022/06/18 12:08:28;;;;;;;3.47;1.42;;;28.20;53.00;;;;;;4824062;29;20230;-60
2022/06/18 12:11:12;;;;;;;3.75;1.08;;;27.40;55.60;;;;;;4835509;29;20228;-59
2022/06/18 12:13:53;;;;;;;2.88;1.60;;;28.80;50.50;;;;;;4842537;29;20257;-59
2022/06/18 12:16:37;;;;;;;3.45;1.17;;;30.40;48.20;;;;;;4860323;29;20638;-59
2022/06/18 12:19:21;;;;;;;6.53;1.70;;;32.50;46.60;;;;;;4824202;29;20193;-59
2022/06/18 12:21:49;;;;;;;4.35;1.80;;;33.70;43.70;;;;;;4824052;29;20254;-58
2022/06/18 12:24:24;;;;;;;3.90;1.58;;;31.00;45.50;;;;;;4824035;29;20635;-60
2022/06/18 12:27:06;;;;;;;4.38;1.52;;;30.60;48.50;;;;;;4824445;29;20178;-60
2022/06/18 12:29:59;;;;;;;2.92;1.35;;;31.90;46.30;;;;;;4823721;29;20810;-59
2022/06/18 12:32:44;;;;;;;3.42;1.15;;;32.60;44.70;;;;;;4823791;29;20213;-59
2022/06/18 12:35:32;;;;;;;2.90;1.23;;;33.70;43.30;;;;;;4823743;29;20190;-60
2022/06/18 12:38:14;;;;;;;5.78;2.33;;;35.50;41.90;;;;;;4823364;29;20217;-62
2022/06/18 12:41:07;;;;;;;3.75;1.55;;;37.10;40.30;;;;;;4823802;29;20193;-60
2022/06/18 12:43:44;;;;;;;3.67;1.60;;;35.60;38.60;;;;;;4823216;29;20651;-58
2022/06/18 12:46:38;;;;;;;2.30;1.45;;;32.70;43.60;;;;;;4823624;29;20187;-61
2022/06/18 12:49:20;;;;;;;3.60;1.17;;;30.30;44.50;;;;;;4822608;29;20214;-61
2022/06/18 12:52:01;;;;;;;7.35;1.27;;;29.50;46.00;;;;;;4823722;29;20205;-61
2022/06/18 12:55:09;;;;;;;2.63;1.33;;;31.30;45.00;;;;;;4823463;29;20235;-59
2022/06/18 12:57:44;;;;;;;4.30;1.35;;;33.00;41.60;;;;;;4816390;29;20229;-60
2022/06/18 13:00:36;;;;;;;4.28;1.55;;;33.80;42.70;;;;;;4822965;29;20196;-60
2022/06/18 13:03:40;;;;;;;3.58;1.20;;;35.70;39.90;;;;;;4823434;29;20273;-60
2022/06/18 13:06:23;;;;;;;6.78;1.40;;;35.70;36.40;;;;;;4822833;29;20178;-60
2022/06/18 13:09:04;;;;;;;2.53;1.27;;;35.90;37.40;;;;;;4823118;29;20254;-61
2022/06/18 13:11:49;;;;;;;5.28;1.73;;;37.20;36.90;;;;;;4839166;29;20196;-61
2022/06/18 13:14:33;;;;;;;7.32;1.40;;;38.80;35.10;;;;;;4822743;29;20190;-61
2022/06/18 13:17:25;;;;;;;1.35;1.20;;;36.60;36.90;;;;;;4825952;29;20195;-64
2022/06/18 13:20:12;;;;;;;3.85;1.33;;;37.10;36.60;;;;;;4841405;29;20256;-61
2022/06/18 13:22:39;;;;;;;2.63;1.52;;;38.10;36.10;;;;;;4841147;29;20689;-61
2022/06/18 13:28:16;;;;;;;3.97;1.60;;;37.80;34.10;;;;;;4840731;29;20192;-59